createdAt,value
2019-05-16T00:02:08.222Z,2.30
2019-05-16T00:04:37.876Z,2.22
2019-05-16T00:07:08.118Z,2.65
2019-05-16T00:09:38.181Z,2.10
2019-05-16T00:12:08.738Z,2.20
2019-05-16T00:14:38.621Z,2.45
2019-05-16T00:17:08.340Z,2.60
2019-05-16T00:19:38.122Z,2.00
2019-05-16T00:22:08.772Z,2.27
2019-05-16T00:24:38.164Z,2.08
2019-05-16T00:27:08.347Z,1.90
2019-05-16T00:29:38.295Z,2.27
2019-05-16T00:32:08.553Z,2.30
2019-05-16T00:34:38.484Z,2.70
2019-05-16T00:37:08.635Z,2.00
2019-05-16T00:39:38.793Z,2.50
2019-05-16T00:42:08.760Z,2.40
2019-05-16T00:44:38.693Z,2.37
2019-05-16T00:47:08.758Z,2.35
2019-05-16T00:49:38.547Z,2.35
2019-05-16T00:52:07.824Z,2.42
2019-05-16T00:54:38.375Z,2.60
2019-05-16T00:57:08.522Z,2.62
2019-05-16T00:59:38.710Z,2.27
2019-05-16T01:02:08.992Z,2.27
2019-05-16T01:04:38.199Z,2.70
2019-05-16T01:07:08.152Z,2.52
2019-05-16T01:09:38.540Z,2.35
2019-05-16T01:12:08.452Z,2.50
2019-05-16T01:14:38.482Z,2.67
2019-05-16T01:17:08.605Z,2.85
2019-05-16T01:19:38.088Z,2.60
2019-05-16T01:22:08.308Z,2.47
2019-05-16T01:24:41.159Z,2.50
2019-05-16T01:27:08.291Z,2.70
2019-05-16T01:29:38.518Z,2.80
2019-05-16T01:32:08.374Z,2.92
2019-05-16T01:34:37.861Z,2.67
2019-05-16T01:37:08.242Z,2.85
2019-05-16T01:39:38.210Z,2.50
2019-05-16T01:42:07.990Z,2.58
2019-05-16T01:44:38.171Z,2.47
2019-05-16T01:47:09.008Z,2.27
2019-05-16T01:49:38.152Z,2.52
2019-05-16T01:52:08.535Z,2.75
2019-05-16T01:54:38.901Z,2.47
2019-05-16T01:57:08.183Z,2.72
2019-05-16T01:59:37.965Z,2.45
2019-05-16T02:02:08.364Z,2.10
2019-05-16T02:04:37.975Z,2.22
2019-05-16T02:07:08.559Z,2.30
2019-05-16T02:09:38.382Z,2.27
2019-05-16T02:12:10.427Z,2.20
2019-05-16T02:14:38.787Z,2.15
2019-05-16T02:17:10.889Z,2.30
2019-05-16T02:19:38.565Z,2.52
2019-05-16T02:22:08.897Z,3.05
2019-05-16T02:24:38.842Z,2.20
2019-05-16T02:27:09.520Z,2.20
2019-05-16T02:29:40.127Z,2.62
2019-05-16T02:32:11.472Z,2.12
2019-05-16T02:34:41.714Z,2.37
2019-05-16T02:37:23.579Z,2.40
2019-05-16T02:39:41.151Z,2.50
2019-05-16T02:42:11.825Z,2.50
2019-05-16T02:44:41.440Z,2.47
2019-05-16T02:47:10.967Z,2.50
2019-05-16T02:49:42.025Z,2.40
2019-05-16T02:52:10.958Z,2.58
2019-05-16T02:54:41.313Z,2.50
2019-05-16T02:57:11.238Z,2.62
2019-05-16T02:59:41.621Z,2.17
2019-05-16T03:02:11.569Z,2.20
2019-05-16T03:04:44.021Z,2.62
2019-05-16T03:07:30.283Z,2.25
2019-05-16T03:09:43.866Z,2.58
2019-05-16T03:12:12.989Z,2.40
2019-05-16T03:14:42.728Z,2.30
2019-05-16T03:17:13.295Z,2.02
2019-05-16T03:19:43.993Z,2.47
2019-05-16T03:22:15.824Z,2.40
2019-05-16T03:24:44.790Z,2.30
2019-05-16T03:27:13.662Z,2.60
2019-05-16T03:29:42.823Z,2.20
2019-05-16T03:32:13.889Z,1.95
2019-05-16T03:34:44.069Z,2.45
2019-05-16T03:37:14.405Z,2.30
2019-05-16T03:39:43.332Z,2.22
2019-05-16T03:42:12.910Z,2.20
2019-05-16T03:44:41.869Z,2.10
2019-05-16T03:47:11.218Z,1.92
2019-05-16T03:49:42.283Z,2.45
2019-05-16T03:52:11.447Z,2.30
2019-05-16T03:54:42.002Z,2.10
2019-05-16T03:57:11.682Z,2.40
2019-05-16T03:59:40.962Z,2.27
2019-05-16T04:02:10.828Z,2.25
2019-05-16T04:04:41.787Z,2.40
2019-05-16T04:07:11.068Z,2.50
2019-05-16T04:09:41.124Z,2.40
2019-05-16T04:12:10.920Z,2.10
2019-05-16T04:14:40.975Z,2.50
2019-05-16T04:17:10.881Z,2.30
2019-05-16T04:19:41.563Z,2.47
2019-05-16T04:22:15.543Z,2.05
2019-05-16T04:24:45.449Z,2.25
2019-05-16T04:27:14.287Z,2.27
2019-05-16T04:29:43.303Z,2.20
2019-05-16T04:32:12.139Z,2.25
2019-05-16T04:34:41.794Z,2.40
2019-05-16T04:37:11.519Z,1.85
2019-05-16T04:39:41.461Z,1.98
2019-05-16T04:42:11.099Z,2.47
2019-05-16T04:44:41.717Z,2.08
2019-05-16T04:47:11.132Z,1.93
2019-05-16T04:49:41.140Z,1.85
2019-05-16T04:52:11.257Z,1.80
2019-05-16T04:54:41.872Z,1.82
2019-05-16T04:57:11.815Z,1.80
2019-05-16T04:59:41.889Z,1.70
2019-05-16T05:02:12.212Z,1.55
2019-05-16T05:04:41.558Z,1.72
2019-05-16T05:07:11.169Z,1.30
2019-05-16T05:09:41.012Z,2.02
2019-05-16T05:12:11.397Z,1.80
2019-05-16T05:14:41.550Z,1.87
2019-05-16T05:17:10.839Z,1.85
2019-05-16T05:19:41.480Z,2.00
2019-05-16T05:22:10.547Z,1.82
2019-05-16T05:24:40.566Z,1.72
2019-05-16T05:27:10.491Z,1.50
2019-05-16T05:29:39.926Z,1.45
2019-05-16T05:32:14.000Z,1.40
2019-05-16T05:34:39.919Z,1.43
2019-05-16T05:37:12.557Z,1.60
2019-05-16T05:39:39.765Z,1.50
2019-05-16T05:42:10.557Z,1.25
2019-05-16T05:44:40.132Z,2.58
2019-05-16T05:47:10.807Z,1.40
2019-05-16T05:49:40.475Z,1.40
2019-05-16T05:52:12.018Z,1.27
2019-05-16T05:54:40.759Z,1.50
2019-05-16T05:57:09.988Z,1.00
2019-05-16T05:59:40.486Z,1.47
2019-05-16T06:02:11.358Z,1.40
2019-05-16T06:04:40.058Z,1.35
2019-05-16T06:07:10.134Z,1.32
2019-05-16T06:09:50.454Z,1.47
2019-05-16T06:12:10.555Z,1.10
2019-05-16T06:14:41.847Z,1.15
2019-05-16T06:17:11.423Z,1.30
2019-05-16T06:19:40.581Z,1.37
2019-05-16T06:22:10.215Z,1.30
2019-05-16T06:24:39.894Z,1.62
2019-05-16T06:27:09.860Z,1.32
2019-05-16T06:29:40.259Z,1.45
2019-05-16T06:32:10.289Z,1.40
2019-05-16T06:34:40.424Z,1.22
2019-05-16T06:37:09.887Z,1.30
2019-05-16T06:39:42.679Z,1.30
2019-05-16T06:42:09.955Z,1.40
2019-05-16T06:44:40.104Z,1.20
2019-05-16T06:47:16.833Z,1.30
2019-05-16T06:49:40.809Z,1.10
2019-05-16T06:52:10.422Z,1.40
2019-05-16T06:54:40.737Z,1.22
2019-05-16T06:57:10.591Z,1.12
2019-05-16T06:59:40.491Z,1.12
2019-05-16T07:02:19.393Z,1.00
2019-05-16T07:04:41.587Z,0.90
2019-05-16T07:07:12.694Z,1.55
2019-05-16T07:09:57.013Z,1.12
2019-05-16T07:12:13.422Z,1.17
2019-05-16T07:14:42.334Z,1.00
2019-05-16T07:17:11.593Z,1.10
2019-05-16T07:19:40.828Z,0.93
2019-05-16T07:22:11.107Z,1.10
2019-05-16T07:24:40.336Z,2.20
2019-05-16T07:27:12.318Z,1.07
2019-05-16T07:29:40.239Z,0.80
2019-05-16T07:32:09.315Z,0.85
2019-05-16T07:34:40.222Z,0.90
2019-05-16T07:37:10.808Z,1.10
2019-05-16T07:39:41.840Z,0.88
2019-05-16T07:42:11.033Z,1.00
2019-05-16T07:44:40.826Z,1.02
2019-05-16T07:47:11.251Z,1.10
2019-05-16T07:49:40.760Z,1.17
2019-05-16T07:52:09.984Z,1.12
2019-05-16T07:54:40.408Z,1.10
2019-05-16T07:57:18.828Z,1.23
2019-05-16T07:59:40.495Z,0.70
2019-05-16T08:02:11.016Z,0.90
2019-05-16T08:04:40.645Z,1.15
2019-05-16T08:07:10.787Z,1.10
2019-05-16T08:09:39.853Z,1.22
2019-05-16T08:12:10.533Z,0.85
2019-05-16T08:14:40.933Z,0.90
2019-05-16T08:17:10.561Z,0.80
2019-05-16T08:19:40.094Z,1.20
2019-05-16T08:22:10.943Z,1.20
2019-05-16T08:24:40.266Z,0.70
2019-05-16T08:27:12.137Z,0.90
2019-05-16T08:29:40.450Z,0.80
2019-05-16T08:32:12.643Z,1.20
2019-05-16T08:34:41.677Z,0.70
2019-05-16T08:37:32.768Z,0.78
2019-05-16T08:39:41.465Z,0.80
2019-05-16T08:42:13.178Z,0.88
2019-05-16T08:44:41.930Z,1.00
2019-05-16T08:47:13.253Z,0.90
2019-05-16T08:49:42.482Z,0.95
2019-05-16T08:52:11.670Z,0.82
2019-05-16T08:54:43.717Z,1.05
2019-05-16T08:57:26.171Z,1.10
2019-05-16T08:59:45.875Z,0.90
2019-05-16T09:02:16.206Z,0.90
2019-05-16T09:04:45.101Z,0.80
2019-05-16T09:07:14.327Z,0.82
2019-05-16T09:09:49.496Z,0.90
2019-05-16T09:12:13.786Z,0.67
2019-05-16T09:14:42.750Z,0.72
2019-05-16T09:17:11.681Z,1.10
2019-05-16T09:19:40.573Z,1.22
2019-05-16T09:22:09.500Z,0.80
2019-05-16T09:24:38.483Z,0.80
2019-05-16T09:27:12.549Z,1.22
2019-05-16T09:29:37.937Z,0.90
2019-05-16T09:32:15.861Z,0.70
2019-05-16T09:34:38.084Z,0.70
2019-05-16T09:37:08.634Z,0.72
2019-05-16T09:39:37.703Z,1.23
2019-05-16T09:42:08.230Z,0.68
2019-05-16T09:44:37.358Z,0.85
2019-05-16T09:47:07.586Z,0.93
2019-05-16T09:49:37.193Z,0.60
2019-05-16T09:52:07.512Z,1.22
2019-05-16T09:54:37.857Z,1.05
2019-05-16T09:57:07.093Z,0.80
2019-05-16T09:59:37.067Z,0.80
2019-05-16T10:02:07.253Z,0.62
2019-05-16T10:04:36.916Z,0.80
2019-05-16T10:07:06.665Z,0.80
2019-05-16T10:09:42.124Z,0.80
2019-05-16T10:12:14.347Z,0.43
2019-05-16T10:14:37.783Z,0.70
2019-05-16T10:17:08.131Z,0.75
2019-05-16T10:19:37.119Z,0.72
2019-05-16T10:22:07.314Z,1.07
2019-05-16T10:24:37.532Z,0.72
2019-05-16T10:27:06.759Z,0.70
2019-05-16T10:29:37.746Z,0.88
2019-05-16T10:32:07.599Z,0.85
2019-05-16T10:34:37.100Z,0.60
2019-05-16T10:37:06.046Z,0.80
2019-05-16T10:39:37.258Z,0.70
2019-05-16T10:42:06.841Z,0.53
2019-05-16T10:44:38.499Z,1.00
2019-05-16T10:47:07.553Z,0.60
2019-05-16T10:49:40.906Z,0.70
2019-05-16T10:52:07.460Z,1.07
2019-05-16T10:54:37.009Z,0.60
2019-05-16T10:57:08.121Z,1.05
2019-05-16T10:59:57.898Z,0.80
2019-05-16T11:02:07.578Z,0.70
2019-05-16T11:04:52.707Z,0.68
2019-05-16T11:07:07.233Z,0.90
2019-05-16T11:09:39.139Z,0.80
2019-05-16T11:12:06.700Z,0.90
2019-05-16T11:14:37.031Z,0.80
2019-05-16T11:17:11.651Z,0.50
2019-05-16T11:19:37.229Z,0.75
2019-05-16T11:22:06.227Z,0.47
2019-05-16T11:24:37.563Z,0.80
2019-05-16T11:27:07.512Z,0.90
2019-05-16T11:29:36.682Z,1.20
2019-05-16T11:32:06.886Z,0.82
2019-05-16T11:34:37.416Z,0.90
2019-05-16T11:37:07.010Z,1.05
2019-05-16T11:39:37.140Z,0.65
2019-05-16T11:42:07.958Z,0.80
2019-05-16T11:44:38.112Z,0.80
2019-05-16T11:47:08.317Z,0.80
2019-05-16T11:49:37.512Z,0.60
2019-05-16T11:52:07.260Z,0.90
2019-05-16T11:54:37.350Z,1.00
2019-05-16T11:57:07.047Z,0.70
2019-05-16T11:59:37.360Z,1.05
2019-05-16T12:02:06.646Z,0.72
2019-05-16T12:04:37.508Z,1.10
2019-05-16T12:07:07.653Z,0.80
2019-05-16T12:09:47.010Z,1.12
2019-05-16T12:12:08.675Z,0.60
2019-05-16T12:14:37.964Z,0.82
2019-05-16T12:17:07.473Z,0.90
2019-05-16T12:19:43.597Z,1.15
2019-05-16T12:22:07.212Z,1.10
2019-05-16T12:24:38.721Z,0.70
2019-05-16T12:27:08.340Z,0.87
2019-05-16T12:29:37.467Z,0.90
2019-05-16T12:32:07.652Z,0.78
2019-05-16T12:34:37.118Z,1.02
2019-05-16T12:37:07.387Z,0.98
2019-05-16T12:39:37.921Z,1.00
2019-05-16T12:42:08.334Z,0.98
2019-05-16T12:44:37.750Z,0.95
2019-05-16T12:47:07.680Z,1.32
2019-05-16T12:49:36.735Z,0.60
2019-05-16T12:52:06.798Z,0.80
2019-05-16T12:54:36.958Z,0.90
2019-05-16T12:57:06.201Z,1.15
2019-05-16T12:59:36.862Z,0.80
2019-05-16T13:02:07.389Z,0.80
2019-05-16T13:04:37.783Z,0.70
2019-05-16T13:07:09.504Z,0.90
2019-05-16T13:09:37.290Z,0.90
2019-05-16T13:12:06.901Z,0.88
2019-05-16T13:14:40.159Z,1.20
2019-05-16T13:17:07.242Z,1.00
2019-05-16T13:19:43.250Z,0.88
2019-05-16T13:22:07.491Z,1.00
2019-05-16T13:24:38.424Z,1.12
2019-05-16T13:27:08.446Z,0.82
2019-05-16T13:29:37.584Z,0.72
2019-05-16T13:32:07.633Z,0.80
2019-05-16T13:34:38.091Z,0.98
2019-05-16T13:37:07.630Z,0.87
2019-05-16T13:39:36.778Z,0.90
2019-05-16T13:42:08.141Z,1.00
2019-05-16T13:44:37.625Z,1.00
2019-05-16T13:47:07.662Z,0.80
2019-05-16T13:49:38.446Z,0.85
2019-05-16T13:52:07.374Z,0.97
2019-05-16T13:54:36.442Z,0.57
2019-05-16T13:57:07.029Z,0.98
2019-05-16T13:59:37.378Z,0.90
2019-05-16T14:02:08.051Z,0.82
2019-05-16T14:04:37.326Z,1.07
2019-05-16T14:07:07.661Z,0.90
2019-05-16T14:09:37.780Z,0.98
2019-05-16T14:12:06.959Z,1.52
2019-05-16T14:14:41.351Z,0.65
2019-05-16T14:17:14.021Z,0.70
2019-05-16T14:19:37.656Z,0.90
2019-05-16T14:22:07.699Z,1.10
2019-05-16T14:24:37.237Z,0.70
2019-05-16T14:27:06.776Z,0.70
2019-05-16T14:29:37.661Z,1.30
2019-05-16T14:32:10.048Z,0.90
2019-05-16T14:34:38.572Z,0.98
2019-05-16T14:37:07.413Z,0.73
2019-05-16T14:39:38.787Z,1.00
2019-05-16T14:42:06.938Z,0.82
2019-05-16T14:44:57.624Z,0.80
2019-05-16T14:47:06.969Z,0.78
2019-05-16T14:49:37.409Z,1.00
2019-05-16T14:52:06.607Z,0.80
2019-05-16T14:54:37.720Z,1.42
2019-05-16T14:57:06.087Z,2.05
2019-05-16T14:59:36.472Z,0.90
2019-05-16T15:02:07.134Z,0.95
2019-05-16T15:04:37.583Z,0.88
2019-05-16T15:07:07.081Z,1.05
2019-05-16T15:09:38.081Z,0.75
2019-05-16T15:12:06.987Z,0.90
2019-05-16T15:14:37.499Z,1.00
2019-05-16T15:17:07.117Z,1.20
2019-05-16T15:19:36.070Z,1.62
2019-05-16T15:22:07.642Z,0.82
2019-05-16T15:24:37.056Z,2.05
2019-05-16T15:27:08.234Z,0.70
2019-05-16T15:29:37.741Z,1.00
2019-05-16T15:32:07.080Z,0.80
2019-05-16T15:34:38.066Z,0.80
2019-05-16T15:37:07.797Z,0.90
2019-05-16T15:39:37.504Z,0.80
2019-05-16T15:42:08.226Z,0.90
2019-05-16T15:44:37.291Z,0.65
2019-05-16T15:47:08.039Z,0.82
2019-05-16T15:49:37.740Z,1.00
2019-05-16T15:52:07.293Z,0.90
2019-05-16T15:54:37.661Z,0.88
2019-05-16T15:57:06.861Z,1.47
2019-05-16T15:59:37.649Z,1.10
2019-05-16T16:02:07.346Z,0.72
2019-05-16T16:04:37.348Z,0.70
2019-05-16T16:07:07.684Z,0.98
2019-05-16T16:09:37.817Z,0.50
2019-05-16T16:12:10.451Z,0.90
2019-05-16T16:14:37.636Z,0.78
2019-05-16T16:17:06.781Z,0.90
2019-05-16T16:19:37.155Z,0.90
2019-05-16T16:22:07.711Z,0.90
2019-05-16T16:24:36.956Z,1.00
2019-05-16T16:27:08.138Z,0.90
2019-05-16T16:29:37.070Z,0.70
2019-05-16T16:32:06.529Z,0.80
2019-05-16T16:34:36.745Z,0.70
2019-05-16T16:37:07.593Z,0.90
2019-05-16T16:39:37.774Z,0.80
2019-05-16T16:42:07.681Z,0.85
2019-05-16T16:44:36.679Z,0.82
2019-05-16T16:47:06.732Z,1.10
2019-05-16T16:49:39.529Z,0.82
2019-05-16T16:52:07.575Z,0.90
2019-05-16T16:54:37.123Z,0.80
2019-05-16T16:57:07.771Z,0.93
2019-05-16T16:59:37.421Z,0.88
2019-05-16T17:02:07.966Z,0.93
2019-05-16T17:04:38.858Z,0.80
2019-05-16T17:07:07.391Z,0.70
2019-05-16T17:09:37.187Z,1.20
2019-05-16T17:12:06.693Z,0.90
2019-05-16T17:14:37.015Z,0.70
2019-05-16T17:17:07.057Z,0.90
2019-05-16T17:19:36.728Z,0.88
2019-05-16T17:22:14.699Z,0.90
2019-05-16T17:24:36.645Z,0.80
2019-05-16T17:27:07.811Z,1.10
2019-05-16T17:29:36.989Z,1.00
2019-05-16T17:32:09.934Z,0.80
2019-05-16T17:34:37.284Z,1.10
2019-05-16T17:37:09.432Z,1.30
2019-05-16T17:39:36.981Z,1.05
2019-05-16T17:42:07.625Z,0.90
2019-05-16T17:44:36.521Z,0.70
2019-05-16T17:47:07.071Z,1.00
2019-05-16T17:49:37.171Z,1.00
2019-05-16T17:52:06.940Z,0.72
2019-05-16T17:54:37.350Z,0.88
2019-05-16T17:57:07.435Z,0.80
2019-05-16T17:59:37.929Z,0.62
2019-05-16T18:02:07.040Z,0.70
2019-05-16T18:04:37.613Z,0.70
2019-05-16T18:07:07.342Z,0.70
2019-05-16T18:09:36.850Z,0.60
2019-05-16T18:12:06.924Z,0.90
2019-05-16T18:14:37.269Z,0.80
2019-05-16T18:17:07.622Z,0.68
2019-05-16T18:19:38.333Z,0.60
2019-05-16T18:22:07.187Z,0.78
2019-05-16T18:24:37.055Z,0.80
2019-05-16T18:27:06.799Z,1.05
2019-05-16T18:29:36.532Z,0.80
2019-05-16T18:32:06.942Z,0.60
2019-05-16T18:34:37.698Z,0.93
2019-05-16T18:37:06.969Z,0.80
2019-05-16T18:39:36.868Z,0.80
2019-05-16T18:42:06.043Z,0.90
2019-05-16T18:44:36.597Z,0.80
2019-05-16T18:47:10.429Z,0.80
2019-05-16T18:49:36.835Z,0.85
2019-05-16T18:52:06.549Z,0.78
2019-05-16T18:54:37.589Z,0.88
2019-05-16T18:57:06.993Z,0.50
2019-05-16T18:59:36.885Z,0.95
2019-05-16T19:02:09.735Z,0.70
2019-05-16T19:04:37.910Z,0.72
2019-05-16T19:07:07.841Z,0.70
2019-05-16T19:09:37.551Z,0.90
2019-05-16T19:12:06.708Z,0.65
2019-05-16T19:14:36.901Z,0.90
2019-05-16T19:17:20.673Z,0.78
2019-05-16T19:19:37.662Z,1.10
2019-05-16T19:22:06.758Z,0.70
2019-05-16T19:24:35.645Z,0.85
2019-05-16T19:27:06.539Z,0.55
2019-05-16T19:29:36.860Z,0.80
2019-05-16T19:32:06.664Z,0.60
2019-05-16T19:34:35.927Z,0.80
2019-05-16T19:37:06.793Z,0.70
2019-05-16T19:39:37.287Z,0.60
2019-05-16T19:42:06.512Z,0.70
2019-05-16T19:44:37.072Z,0.90
2019-05-16T19:47:07.107Z,0.80
2019-05-16T19:49:37.030Z,0.95
2019-05-16T19:52:07.252Z,0.90
2019-05-16T19:54:36.513Z,0.80
2019-05-16T19:57:07.261Z,0.68
2019-05-16T19:59:36.711Z,0.93
2019-05-16T20:02:07.673Z,0.70
2019-05-16T20:04:36.650Z,0.80
2019-05-16T20:07:07.409Z,0.80
2019-05-16T20:09:36.593Z,0.78
2019-05-16T20:12:07.534Z,0.53
2019-05-16T20:14:36.637Z,0.80
2019-05-16T20:17:07.358Z,1.10
2019-05-16T20:19:36.505Z,0.70
2019-05-16T20:22:07.507Z,0.75
2019-05-16T20:24:36.302Z,0.57
2019-05-16T20:27:05.881Z,0.93
2019-05-16T20:29:36.734Z,0.80
2019-05-16T20:32:07.778Z,0.70
2019-05-16T20:34:37.166Z,1.20
2019-05-16T20:37:09.065Z,0.50
2019-05-16T20:39:37.176Z,0.80
2019-05-16T20:42:07.705Z,0.75
2019-05-16T20:44:37.297Z,0.82
2019-05-16T20:47:07.198Z,0.70
2019-05-16T20:49:37.351Z,0.70
2019-05-16T20:52:07.044Z,0.93
2019-05-16T20:54:37.627Z,0.50
2019-05-16T20:57:06.894Z,0.85
2019-05-16T20:59:35.839Z,0.55
2019-05-16T21:02:06.915Z,0.65
2019-05-16T21:04:37.439Z,0.60
2019-05-16T21:07:10.817Z,0.50
2019-05-16T21:09:36.977Z,0.70
2019-05-16T21:12:08.056Z,0.85
2019-05-16T21:14:36.575Z,0.80
2019-05-16T21:17:06.713Z,0.80
2019-05-16T21:19:36.294Z,2.05
2019-05-16T21:22:07.299Z,0.90
2019-05-16T21:24:37.347Z,0.80
2019-05-16T21:27:06.370Z,0.80
2019-05-16T21:29:36.959Z,0.78
2019-05-16T21:32:07.423Z,0.85
2019-05-16T21:34:36.593Z,0.82
2019-05-16T21:37:15.717Z,0.70
2019-05-16T21:39:36.909Z,0.60
2019-05-16T21:42:07.474Z,0.75
2019-05-16T21:44:37.407Z,0.80
2019-05-16T21:47:06.472Z,0.62
2019-05-16T21:49:37.045Z,0.80
2019-05-16T21:52:05.992Z,0.82
2019-05-16T21:54:36.783Z,0.60
2019-05-16T21:57:05.516Z,0.75
2019-05-16T21:59:34.380Z,0.47
2019-05-16T22:02:03.735Z,0.68
2019-05-16T22:04:32.608Z,0.80
2019-05-16T22:07:01.601Z,0.55
2019-05-16T22:09:30.569Z,0.62
2019-05-16T22:11:59.459Z,0.68
2019-05-16T22:14:31.283Z,0.68
2019-05-16T22:17:00.243Z,0.70
2019-05-16T22:19:29.088Z,0.62
2019-05-16T22:21:58.500Z,0.70
2019-05-16T22:24:27.659Z,0.70
2019-05-16T22:26:57.138Z,0.70
2019-05-16T22:29:26.447Z,0.70
2019-05-16T22:31:55.468Z,0.70
2019-05-16T22:34:26.353Z,0.65
2019-05-16T22:36:57.132Z,0.60
2019-05-16T22:39:27.093Z,0.60
2019-05-16T22:41:55.987Z,0.65
2019-05-16T22:44:26.968Z,0.78
2019-05-16T22:46:55.397Z,0.68
2019-05-16T22:49:24.297Z,0.53
2019-05-16T22:51:53.231Z,0.88
2019-05-16T22:54:22.181Z,0.75
2019-05-16T22:56:51.052Z,0.70
2019-05-16T22:59:19.956Z,0.82
2019-05-16T23:01:48.919Z,0.75
2019-05-16T23:04:17.789Z,0.75
2019-05-16T23:06:46.670Z,0.68
2019-05-16T23:09:16.400Z,0.80
2019-05-16T23:11:45.452Z,1.02
2019-05-16T23:14:16.880Z,0.70
2019-05-16T23:16:46.464Z,0.90
2019-05-16T23:19:17.237Z,0.88
2019-05-16T23:21:47.464Z,0.70
2019-05-16T23:24:17.238Z,1.10
2019-05-16T23:26:47.007Z,0.90
2019-05-16T23:29:17.000Z,0.80
2019-05-16T23:31:47.236Z,0.70
2019-05-16T23:34:18.551Z,0.93
2019-05-16T23:36:47.059Z,1.07
2019-05-16T23:39:15.975Z,0.90
2019-05-16T23:41:47.403Z,1.00
2019-05-16T23:46:47.098Z,0.70
2019-05-16T23:49:16.781Z,0.85
2019-05-16T23:51:47.345Z,0.95
2019-05-16T23:54:17.278Z,0.80
2019-05-16T23:56:46.626Z,0.75
2019-05-16T23:59:17.161Z,0.85
